sensor_id;sensor_type;location;lat;lon;timestamp;pressure;altitude;pressure_sealevel;temperature;humidity
49377;BME280;35253;34.688;33.040;2023-05-29T00:02:14;100164.66;;;21.81;100.00
49377;BME280;35253;34.688;33.040;2023-05-29T00:04:39;100173.69;;;21.74;100.00
49377;BME280;35253;34.688;33.040;2023-05-29T00:07:05;100176.56;;;21.72;100.00
49377;BME280;35253;34.688;33.040;2023-05-29T00:09:31;100173.00;;;21.80;100.00
49377;BME280;35253;34.688;33.040;2023-05-29T00:11:57;100159.28;;;21.73;100.00
49377;BME280;35253;34.688;33.040;2023-05-29T00:14:23;100167.44;;;21.65;100.00
49377;BME280;35253;34.688;33.040;2023-05-29T00:16:50;100169.50;;;21.55;100.00
49377;BME280;35253;34.688;33.040;2023-05-29T00:19:16;100159.16;;;21.58;100.00
49377;BME280;35253;34.688;33.040;2023-05-29T00:21:50;100164.75;;;21.57;100.00
49377;BME280;35253;34.688;33.040;2023-05-29T00:24:16;100163.06;;;21.56;100.00
49377;BME280;35253;34.688;33.040;2023-05-29T00:26:42;100166.47;;;21.58;100.00
49377;BME280;35253;34.688;33.040;2023-05-29T00:29:08;100163.03;;;21.64;100.00
49377;BME280;35253;34.688;33.040;2023-05-29T00:31:34;100161.50;;;21.70;100.00
49377;BME280;35253;34.688;33.040;2023-05-29T00:34:01;100159.31;;;21.65;100.00
49377;BME280;35253;34.688;33.040;2023-05-29T00:36:27;100161.91;;;21.42;100.00
49377;BME280;35253;34.688;33.040;2023-05-29T00:38:55;100166.66;;;21.40;100.00
49377;BME280;35253;34.688;33.040;2023-05-29T00:41:20;100168.19;;;21.43;100.00
49377;BME280;35253;34.688;33.040;2023-05-29T00:43:46;100168.88;;;21.45;100.00
49377;BME280;35253;34.688;33.040;2023-05-29T00:46:13;100166.34;;;21.27;100.00
49377;BME280;35253;34.688;33.040;2023-05-29T00:48:41;100167.38;;;21.26;100.00
49377;BME280;35253;34.688;33.040;2023-05-29T00:51:09;100176.34;;;21.35;100.00
49377;BME280;35253;34.688;33.040;2023-05-29T00:53:36;100181.91;;;21.33;100.00
49377;BME280;35253;34.688;33.040;2023-05-29T00:56:03;100184.47;;;21.35;100.00
49377;BME280;35253;34.688;33.040;2023-05-29T00:58:30;100190.75;;;21.35;100.00
49377;BME280;35253;34.688;33.040;2023-05-29T01:00:56;100191.25;;;21.39;100.00
49377;BME280;35253;34.688;33.040;2023-05-29T01:03:23;100187.19;;;21.35;100.00
49377;BME280;35253;34.688;33.040;2023-05-29T01:05:50;100190.22;;;21.40;100.00
49377;BME280;35253;34.688;33.040;2023-05-29T01:08:17;100188.38;;;21.40;100.00
49377;BME280;35253;34.688;33.040;2023-05-29T01:10:42;100185.47;;;21.42;100.00
49377;BME280;35253;34.688;33.040;2023-05-29T01:13:12;100181.91;;;21.49;100.00
49377;BME280;35253;34.688;33.040;2023-05-29T01:15:57;100188.69;;;21.45;100.00
49377;BME280;35253;34.688;33.040;2023-05-29T01:23:53;100191.91;;;21.49;100.00
49377;BME280;35253;34.688;33.040;2023-05-29T01:26:46;100188.47;;;21.55;100.00
49377;BME280;35253;34.688;33.040;2023-05-29T01:29:15;100176.78;;;21.63;100.00
49377;BME280;35253;34.688;33.040;2023-05-29T01:31:44;100183.88;;;21.72;100.00
49377;BME280;35253;34.688;33.040;2023-05-29T01:34:11;100189.97;;;21.74;100.00
49377;BME280;35253;34.688;33.040;2023-05-29T01:36:37;100187.41;;;21.80;100.00
49377;BME280;35253;34.688;33.040;2023-05-29T01:39:03;100196.28;;;21.66;100.00
49377;BME280;35253;34.688;33.040;2023-05-29T01:41:29;100202.06;;;21.63;100.00
49377;BME280;35253;34.688;33.040;2023-05-29T01:43:57;100198.69;;;21.53;100.00
49377;BME280;35253;34.688;33.040;2023-05-29T01:46:23;100208.84;;;21.43;100.00
49377;BME280;35253;34.688;33.040;2023-05-29T01:48:51;100203.59;;;21.41;100.00
49377;BME280;35253;34.688;33.040;2023-05-29T01:51:18;100207.19;;;21.26;100.00
49377;BME280;35253;34.688;33.040;2023-05-29T01:53:44;100210.91;;;21.17;100.00
49377;BME280;35253;34.688;33.040;2023-05-29T01:56:10;100207.34;;;21.16;100.00
49377;BME280;35253;34.688;33.040;2023-05-29T01:58:38;100207.03;;;21.19;100.00
49377;BME280;35253;34.688;33.040;2023-05-29T02:01:06;100216.00;;;21.20;100.00
49377;BME280;35253;34.688;33.040;2023-05-29T02:03:32;100214.63;;;21.16;100.00
49377;BME280;35253;34.688;33.040;2023-05-29T02:05:59;100214.31;;;21.27;100.00
49377;BME280;35253;34.688;33.040;2023-05-29T02:08:26;100212.47;;;21.19;100.00
49377;BME280;35253;34.688;33.040;2023-05-29T02:10:51;100220.75;;;21.18;100.00
49377;BME280;35253;34.688;33.040;2023-05-29T02:13:17;100219.72;;;21.27;100.00
49377;BME280;35253;34.688;33.040;2023-05-29T02:15:44;100218.72;;;21.36;100.00
49377;BME280;35253;34.688;33.040;2023-05-29T02:18:11;100216.66;;;21.38;100.00
49377;BME280;35253;34.688;33.040;2023-05-29T02:20:40;100219.38;;;21.30;100.00
49377;BME280;35253;34.688;33.040;2023-05-29T02:23:08;100214.28;;;21.43;100.00
49377;BME280;35253;34.688;33.040;2023-05-29T02:25:34;100226.47;;;21.47;100.00
49377;BME280;35253;34.688;33.040;2023-05-29T02:28:01;100229.53;;;21.52;100.00
49377;BME280;35253;34.688;33.040;2023-05-29T02:30:28;100227.47;;;21.70;100.00
49377;BME280;35253;34.688;33.040;2023-05-29T02:32:54;100228.63;;;21.84;100.00
49377;BME280;35253;34.688;33.040;2023-05-29T02:35:20;100225.88;;;21.92;100.00
49377;BME280;35253;34.688;33.040;2023-05-29T02:37:48;100219.28;;;21.94;100.00
49377;BME280;35253;34.688;33.040;2023-05-29T02:40:14;100224.88;;;22.01;100.00
49377;BME280;35253;34.688;33.040;2023-05-29T02:42:40;100237.56;;;22.09;100.00
49377;BME280;35253;34.688;33.040;2023-05-29T02:45:06;100247.78;;;21.82;100.00
49377;BME280;35253;34.688;33.040;2023-05-29T02:47:32;100245.28;;;21.65;100.00
49377;BME280;35253;34.688;33.040;2023-05-29T02:49:58;100241.06;;;21.46;100.00
49377;BME280;35253;34.688;33.040;2023-05-29T02:52:23;100250.06;;;21.38;100.00
49377;BME280;35253;34.688;33.040;2023-05-29T02:54:49;100249.56;;;21.35;100.00
49377;BME280;35253;34.688;33.040;2023-05-29T02:57:15;100259.72;;;21.41;100.00
49377;BME280;35253;34.688;33.040;2023-05-29T02:59:41;100258.38;;;21.37;100.00
49377;BME280;35253;34.688;33.040;2023-05-29T03:02:07;100254.63;;;21.46;100.00
49377;BME280;35253;34.688;33.040;2023-05-29T03:04:32;100241.03;;;21.70;100.00
49377;BME280;35253;34.688;33.040;2023-05-29T03:06:58;100238.50;;;21.61;100.00
49377;BME280;35253;34.688;33.040;2023-05-29T03:09:24;100235.66;;;21.30;100.00
49377;BME280;35253;34.688;33.040;2023-05-29T03:11:49;100242.44;;;21.18;100.00
49377;BME280;35253;34.688;33.040;2023-05-29T03:14:16;100239.22;;;21.22;100.00
49377;BME280;35253;34.688;33.040;2023-05-29T03:16:43;100238.34;;;21.38;100.00
49377;BME280;35253;34.688;33.040;2023-05-29T03:19:09;100238.00;;;21.57;100.00
49377;BME280;35253;34.688;33.040;2023-05-29T03:21:34;100245.97;;;21.58;100.00
49377;BME280;35253;34.688;33.040;2023-05-29T03:24:01;100243.69;;;21.86;100.00
49377;BME280;35253;34.688;33.040;2023-05-29T03:26:30;100241.50;;;21.98;100.00
49377;BME280;35253;34.688;33.040;2023-05-29T03:28:56;100248.41;;;22.09;100.00
49377;BME280;35253;34.688;33.040;2023-05-29T03:31:22;100253.28;;;22.21;100.00
49377;BME280;35253;34.688;33.040;2023-05-29T03:33:48;100260.53;;;22.37;100.00
49377;BME280;35253;34.688;33.040;2023-05-29T03:36:14;100267.16;;;22.34;100.00
49377;BME280;35253;34.688;33.040;2023-05-29T03:38:43;100271.72;;;22.42;100.00
49377;BME280;35253;34.688;33.040;2023-05-29T03:41:08;100267.25;;;22.49;100.00
49377;BME280;35253;34.688;33.040;2023-05-29T03:43:34;100264.34;;;22.20;100.00
49377;BME280;35253;34.688;33.040;2023-05-29T03:46:01;100276.94;;;22.05;100.00
49377;BME280;35253;34.688;33.040;2023-05-29T03:48:27;100274.88;;;22.15;100.00
49377;BME280;35253;34.688;33.040;2023-05-29T03:50:53;100283.66;;;22.25;100.00
49377;BME280;35253;34.688;33.040;2023-05-29T03:53:18;100293.78;;;22.39;100.00
49377;BME280;35253;34.688;33.040;2023-05-29T03:55:44;100291.31;;;22.21;100.00
49377;BME280;35253;34.688;33.040;2023-05-29T03:58:10;100294.06;;;22.13;100.00
49377;BME280;35253;34.688;33.040;2023-05-29T04:00:38;100303.50;;;22.25;100.00
49377;BME280;35253;34.688;33.040;2023-05-29T04:03:04;100293.56;;;22.10;100.00
49377;BME280;35253;34.688;33.040;2023-05-29T04:05:29;100300.84;;;22.56;100.00
49377;BME280;35253;34.688;33.040;2023-05-29T04:07:56;100287.44;;;22.16;100.00
49377;BME280;35253;34.688;33.040;2023-05-29T04:10:22;100292.91;;;21.99;100.00
49377;BME280;35253;34.688;33.040;2023-05-29T04:12:49;100287.19;;;22.41;100.00
49377;BME280;35253;34.688;33.040;2023-05-29T04:15:14;100300.34;;;22.14;100.00
49377;BME280;35253;34.688;33.040;2023-05-29T04:17:40;100307.50;;;22.07;100.00
49377;BME280;35253;34.688;33.040;2023-05-29T04:20:06;100302.16;;;22.21;100.00
49377;BME280;35253;34.688;33.040;2023-05-29T04:22:37;100311.25;;;21.97;100.00
49377;BME280;35253;34.688;33.040;2023-05-29T04:25:03;100310.88;;;22.09;100.00
49377;BME280;35253;34.688;33.040;2023-05-29T04:27:32;100310.94;;;22.39;100.00
49377;BME280;35253;34.688;33.040;2023-05-29T04:30:04;100320.19;;;22.61;100.00
49377;BME280;35253;34.688;33.040;2023-05-29T04:32:30;100320.69;;;22.65;100.00
49377;BME280;35253;34.688;33.040;2023-05-29T04:35:01;100324.66;;;22.54;100.00
49377;BME280;35253;34.688;33.040;2023-05-29T04:37:27;100320.94;;;22.39;100.00
49377;BME280;35253;34.688;33.040;2023-05-29T04:39:57;100336.28;;;22.32;100.00
49377;BME280;35253;34.688;33.040;2023-05-29T04:42:23;100326.13;;;22.18;100.00
49377;BME280;35253;34.688;33.040;2023-05-29T04:44:51;100326.69;;;22.52;100.00
49377;BME280;35253;34.688;33.040;2023-05-29T04:47:20;100331.97;;;22.45;100.00
49377;BME280;35253;34.688;33.040;2023-05-29T04:49:45;100335.03;;;22.51;100.00
49377;BME280;35253;34.688;33.040;2023-05-29T04:52:18;100332.59;;;22.64;100.00
49377;BME280;35253;34.688;33.040;2023-05-29T04:54:46;100331.38;;;22.66;100.00
49377;BME280;35253;34.688;33.040;2023-05-29T04:57:12;100338.31;;;22.69;100.00
49377;BME280;35253;34.688;33.040;2023-05-29T04:59:37;100346.34;;;22.62;100.00
49377;BME280;35253;34.688;33.040;2023-05-29T05:02:03;100339.25;;;22.53;100.00
49377;BME280;35253;34.688;33.040;2023-05-29T05:04:29;100343.75;;;22.69;100.00
49377;BME280;35253;34.688;33.040;2023-05-29T05:06:55;100351.09;;;22.60;100.00
49377;BME280;35253;34.688;33.040;2023-05-29T05:09:21;100356.06;;;22.96;100.00
49377;BME280;35253;34.688;33.040;2023-05-29T05:11:46;100359.81;;;22.95;100.00
49377;BME280;35253;34.688;33.040;2023-05-29T05:14:12;100364.94;;;22.89;100.00
49377;BME280;35253;34.688;33.040;2023-05-29T05:16:38;100374.03;;;23.05;100.00
49377;BME280;35253;34.688;33.040;2023-05-29T05:19:03;100368.53;;;23.13;100.00
49377;BME280;35253;34.688;33.040;2023-05-29T05:21:30;100373.00;;;23.06;100.00
49377;BME280;35253;34.688;33.040;2023-05-29T05:23:58;100377.00;;;22.87;100.00
49377;BME280;35253;34.688;33.040;2023-05-29T05:26:23;100384.38;;;22.70;100.00
49377;BME280;35253;34.688;33.040;2023-05-29T05:28:50;100386.41;;;22.60;100.00
49377;BME280;35253;34.688;33.040;2023-05-29T05:31:16;100384.41;;;22.54;100.00
49377;BME280;35253;34.688;33.040;2023-05-29T05:33:42;100378.25;;;22.68;100.00
49377;BME280;35253;34.688;33.040;2023-05-29T05:36:07;100379.97;;;22.69;100.00
49377;BME280;35253;34.688;33.040;2023-05-29T05:38:33;100384.03;;;22.73;100.00
49377;BME280;35253;34.688;33.040;2023-05-29T05:40:59;100384.72;;;22.67;100.00
49377;BME280;35253;34.688;33.040;2023-05-29T05:43:25;100386.75;;;22.65;100.00
49377;BME280;35253;34.688;33.040;2023-05-29T05:45:52;100379.28;;;22.67;100.00
49377;BME280;35253;34.688;33.040;2023-05-29T05:48:18;100387.13;;;22.54;100.00
49377;BME280;35253;34.688;33.040;2023-05-29T05:50:43;100383.69;;;22.76;100.00
49377;BME280;35253;34.688;33.040;2023-05-29T05:53:09;100380.22;;;22.90;100.00
49377;BME280;35253;34.688;33.040;2023-05-29T05:55:35;100391.84;;;22.68;100.00
49377;BME280;35253;34.688;33.040;2023-05-29T05:58:01;100398.66;;;22.72;100.00
49377;BME280;35253;34.688;33.040;2023-05-29T06:00:26;100401.16;;;23.21;100.00
49377;BME280;35253;34.688;33.040;2023-05-29T06:02:53;100401.63;;;23.55;100.00
49377;BME280;35253;34.688;33.040;2023-05-29T06:05:19;100396.78;;;23.65;100.00
49377;BME280;35253;34.688;33.040;2023-05-29T06:07:44;100411.97;;;23.29;100.00
49377;BME280;35253;34.688;33.040;2023-05-29T06:10:10;100396.78;;;23.04;100.00
49377;BME280;35253;34.688;33.040;2023-05-29T06:12:36;100395.97;;;23.34;100.00
49377;BME280;35253;34.688;33.040;2023-05-29T06:15:02;100400.00;;;23.46;100.00
49377;BME280;35253;34.688;33.040;2023-05-29T06:17:29;100402.38;;;23.41;100.00
49377;BME280;35253;34.688;33.040;2023-05-29T06:19:55;100398.13;;;23.47;100.00
49377;BME280;35253;34.688;33.040;2023-05-29T06:22:21;100406.63;;;23.44;100.00
49377;BME280;35253;34.688;33.040;2023-05-29T06:24:46;100392.38;;;23.11;100.00
49377;BME280;35253;34.688;33.040;2023-05-29T06:27:12;100404.75;;;23.13;100.00
49377;BME280;35253;34.688;33.040;2023-05-29T06:29:38;100413.06;;;23.20;100.00
49377;BME280;35253;34.688;33.040;2023-05-29T06:32:03;100413.00;;;23.28;100.00
49377;BME280;35253;34.688;33.040;2023-05-29T06:34:29;100402.38;;;23.10;100.00
49377;BME280;35253;34.688;33.040;2023-05-29T06:36:55;100396.00;;;23.26;100.00
49377;BME280;35253;34.688;33.040;2023-05-29T06:39:20;100398.50;;;23.35;100.00
49377;BME280;35253;34.688;33.040;2023-05-29T06:41:47;100395.44;;;23.61;100.00
49377;BME280;35253;34.688;33.040;2023-05-29T06:44:12;100407.41;;;23.60;100.00
49377;BME280;35253;34.688;33.040;2023-05-29T06:46:38;100410.22;;;23.67;100.00
49377;BME280;35253;34.688;33.040;2023-05-29T06:49:04;100410.63;;;24.01;100.00
49377;BME280;35253;34.688;33.040;2023-05-29T06:51:29;100412.53;;;23.78;100.00
49377;BME280;35253;34.688;33.040;2023-05-29T06:53:56;100410.69;;;23.70;100.00
49377;BME280;35253;34.688;33.040;2023-05-29T06:56:21;100414.03;;;23.27;100.00
49377;BME280;35253;34.688;33.040;2023-05-29T06:58:47;100426.72;;;23.65;100.00
49377;BME280;35253;34.688;33.040;2023-05-29T07:01:13;100423.41;;;23.55;100.00
49377;BME280;35253;34.688;33.040;2023-05-29T07:03:38;100405.94;;;23.50;100.00
49377;BME280;35253;34.688;33.040;2023-05-29T07:06:04;100410.59;;;23.64;100.00
49377;BME280;35253;34.688;33.040;2023-05-29T07:08:31;100420.63;;;23.63;100.00
49377;BME280;35253;34.688;33.040;2023-05-29T07:10:57;100422.28;;;24.10;100.00
49377;BME280;35253;34.688;33.040;2023-05-29T07:13:24;100425.59;;;23.83;100.00
49377;BME280;35253;34.688;33.040;2023-05-29T07:15:51;100426.41;;;23.83;100.00
49377;BME280;35253;34.688;33.040;2023-05-29T07:18:16;100427.88;;;23.94;100.00
49377;BME280;35253;34.688;33.040;2023-05-29T07:20:42;100424.25;;;23.78;100.00
49377;BME280;35253;34.688;33.040;2023-05-29T07:23:08;100419.72;;;23.94;100.00
49377;BME280;35253;34.688;33.040;2023-05-29T07:25:33;100418.38;;;23.36;100.00
49377;BME280;35253;34.688;33.040;2023-05-29T07:27:59;100428.13;;;23.61;100.00
49377;BME280;35253;34.688;33.040;2023-05-29T07:30:25;100427.78;;;23.64;100.00
49377;BME280;35253;34.688;33.040;2023-05-29T07:32:51;100425.47;;;23.76;100.00
49377;BME280;35253;34.688;33.040;2023-05-29T07:35:16;100427.72;;;24.10;100.00
49377;BME280;35253;34.688;33.040;2023-05-29T07:37:42;100425.69;;;24.12;100.00
49377;BME280;35253;34.688;33.040;2023-05-29T07:40:08;100432.59;;;24.00;100.00
49377;BME280;35253;34.688;33.040;2023-05-29T07:42:34;100436.84;;;23.79;100.00
49377;BME280;35253;34.688;33.040;2023-05-29T07:45:00;100429.69;;;23.78;100.00
49377;BME280;35253;34.688;33.040;2023-05-29T07:47:26;100430.44;;;23.95;100.00
49377;BME280;35253;34.688;33.040;2023-05-29T07:49:52;100432.69;;;24.06;100.00
49377;BME280;35253;34.688;33.040;2023-05-29T07:52:18;100430.63;;;24.31;100.00
49377;BME280;35253;34.688;33.040;2023-05-29T07:54:44;100427.03;;;24.16;100.00
49377;BME280;35253;34.688;33.040;2023-05-29T07:57:10;100432.84;;;23.67;100.00
49377;BME280;35253;34.688;33.040;2023-05-29T07:59:36;100429.38;;;23.96;100.00
49377;BME280;35253;34.688;33.040;2023-05-29T08:02:02;100425.69;;;24.12;100.00
49377;BME280;35253;34.688;33.040;2023-05-29T08:04:29;100448.03;;;24.45;100.00
49377;BME280;35253;34.688;33.040;2023-05-29T08:06:56;100445.34;;;24.59;100.00
49377;BME280;35253;34.688;33.040;2023-05-29T08:09:22;100449.66;;;24.68;100.00
49377;BME280;35253;34.688;33.040;2023-05-29T08:11:47;100445.31;;;24.30;100.00
49377;BME280;35253;34.688;33.040;2023-05-29T08:14:14;100448.84;;;24.16;100.00
49377;BME280;35253;34.688;33.040;2023-05-29T08:16:43;100454.50;;;24.29;100.00
49377;BME280;35253;34.688;33.040;2023-05-29T08:19:09;100453.56;;;24.22;100.00
49377;BME280;35253;34.688;33.040;2023-05-29T08:21:34;100450.53;;;24.17;100.00
49377;BME280;35253;34.688;33.040;2023-05-29T08:24:02;100450.28;;;24.41;100.00
49377;BME280;35253;34.688;33.040;2023-05-29T08:26:30;100458.41;;;24.64;100.00
49377;BME280;35253;34.688;33.040;2023-05-29T08:28:55;100444.59;;;24.65;100.00
49377;BME280;35253;34.688;33.040;2023-05-29T08:31:21;100448.44;;;24.56;100.00
49377;BME280;35253;34.688;33.040;2023-05-29T08:33:50;100444.81;;;24.27;100.00
49377;BME280;35253;34.688;33.040;2023-05-29T08:36:15;100454.88;;;24.93;100.00
49377;BME280;35253;34.688;33.040;2023-05-29T08:38:42;100463.84;;;24.64;100.00
49377;BME280;35253;34.688;33.040;2023-05-29T08:41:11;100473.31;;;24.53;100.00
49377;BME280;35253;34.688;33.040;2023-05-29T08:43:41;100471.88;;;24.65;100.00
49377;BME280;35253;34.688;33.040;2023-05-29T08:46:07;100462.34;;;24.76;100.00
49377;BME280;35253;34.688;33.040;2023-05-29T08:48:34;100470.19;;;24.94;100.00
49377;BME280;35253;34.688;33.040;2023-05-29T08:51:02;100470.81;;;24.52;100.00
49377;BME280;35253;34.688;33.040;2023-05-29T08:53:29;100471.53;;;24.46;100.00
49377;BME280;35253;34.688;33.040;2023-05-29T08:55:57;100469.78;;;24.67;100.00
49377;BME280;35253;34.688;33.040;2023-05-29T08:58:23;100459.22;;;24.35;100.00
49377;BME280;35253;34.688;33.040;2023-05-29T09:00:50;100476.53;;;24.42;100.00
49377;BME280;35253;34.688;33.040;2023-05-29T09:03:16;100474.50;;;24.74;100.00
49377;BME280;35253;34.688;33.040;2023-05-29T09:05:43;100464.06;;;24.25;100.00
49377;BME280;35253;34.688;33.040;2023-05-29T09:08:10;100460.88;;;24.21;100.00
49377;BME280;35253;34.688;33.040;2023-05-29T09:10:44;100452.81;;;24.28;100.00
49377;BME280;35253;34.688;33.040;2023-05-29T09:13:14;100457.16;;;24.37;100.00
49377;BME280;35253;34.688;33.040;2023-05-29T09:15:40;100452.56;;;24.67;100.00
49377;BME280;35253;34.688;33.040;2023-05-29T09:18:08;100436.19;;;24.38;100.00
49377;BME280;35253;34.688;33.040;2023-05-29T09:20:34;100442.88;;;24.35;100.00
49377;BME280;35253;34.688;33.040;2023-05-29T09:23:06;100447.13;;;24.52;100.00
49377;BME280;35253;34.688;33.040;2023-05-29T09:25:35;100453.63;;;24.81;100.00
49377;BME280;35253;34.688;33.040;2023-05-29T09:28:06;100447.19;;;24.44;100.00
49377;BME280;35253;34.688;33.040;2023-05-29T09:30:38;100449.00;;;24.66;100.00
49377;BME280;35253;34.688;33.040;2023-05-29T09:33:08;100447.78;;;24.84;100.00
49377;BME280;35253;34.688;33.040;2023-05-29T09:35:35;100451.38;;;24.69;100.00
49377;BME280;35253;34.688;33.040;2023-05-29T09:38:01;100461.78;;;24.51;100.00
49377;BME280;35253;34.688;33.040;2023-05-29T09:40:31;100447.56;;;24.41;100.00
49377;BME280;35253;34.688;33.040;2023-05-29T09:43:05;100485.88;;;24.77;100.00
49377;BME280;35253;34.688;33.040;2023-05-29T09:45:33;100452.94;;;24.64;100.00
49377;BME280;35253;34.688;33.040;2023-05-29T09:47:59;100460.88;;;24.36;100.00
49377;BME280;35253;34.688;33.040;2023-05-29T09:50:28;100455.16;;;24.31;100.00
49377;BME280;35253;34.688;33.040;2023-05-29T09:52:56;100450.47;;;24.92;100.00
49377;BME280;35253;34.688;33.040;2023-05-29T09:55:23;100458.03;;;24.67;100.00
49377;BME280;35253;34.688;33.040;2023-05-29T09:57:53;100470.34;;;24.48;100.00
49377;BME280;35253;34.688;33.040;2023-05-29T10:00:19;100464.47;;;24.37;100.00
49377;BME280;35253;34.688;33.040;2023-05-29T10:02:45;100454.38;;;24.75;100.00
49377;BME280;35253;34.688;33.040;2023-05-29T10:05:11;100446.28;;;24.81;100.00
49377;BME280;35253;34.688;33.040;2023-05-29T10:07:43;100457.00;;;24.83;100.00
49377;BME280;35253;34.688;33.040;2023-05-29T10:10:11;100462.75;;;24.36;100.00
49377;BME280;35253;34.688;33.040;2023-05-29T10:12:44;100450.06;;;24.65;100.00
49377;BME280;35253;34.688;33.040;2023-05-29T10:15:15;100448.03;;;24.30;100.00
49377;BME280;35253;34.688;33.040;2023-05-29T10:17:50;100459.69;;;24.39;100.00
49377;BME280;35253;34.688;33.040;2023-05-29T10:20:17;100447.06;;;24.90;100.00
49377;BME280;35253;34.688;33.040;2023-05-29T10:22:50;100446.78;;;24.99;100.00
49377;BME280;35253;34.688;33.040;2023-05-29T10:25:20;100459.16;;;24.73;100.00
49377;BME280;35253;34.688;33.040;2023-05-29T10:27:48;100450.69;;;24.67;100.00
49377;BME280;35253;34.688;33.040;2023-05-29T10:30:38;100443.03;;;24.86;100.00
49377;BME280;35253;34.688;33.040;2023-05-29T10:38:25;100450.41;;;24.48;100.00
49377;BME280;35253;34.688;33.040;2023-05-29T10:40:52;100447.41;;;24.72;100.00
49377;BME280;35253;34.688;33.040;2023-05-29T10:43:33;100460.19;;;24.72;100.00
49377;BME280;35253;34.688;33.040;2023-05-29T10:46:01;100453.88;;;24.42;100.00
49377;BME280;35253;34.688;33.040;2023-05-29T10:50:56;100463.88;;;24.93;100.00
49377;BME280;35253;34.688;33.040;2023-05-29T10:53:26;100469.28;;;24.49;100.00
49377;BME280;35253;34.688;33.040;2023-05-29T10:55:52;100471.69;;;24.07;100.00
49377;BME280;35253;34.688;33.040;2023-05-29T10:58:20;100455.97;;;24.17;100.00
49377;BME280;35253;34.688;33.040;2023-05-29T11:00:47;100464.59;;;24.58;100.00
49377;BME280;35253;34.688;33.040;2023-05-29T11:03:24;100479.63;;;24.39;100.00
49377;BME280;35253;34.688;33.040;2023-05-29T11:06:06;100471.63;;;24.38;100.00
49377;BME280;35253;34.688;33.040;2023-05-29T11:08:46;100478.13;;;24.51;100.00
49377;BME280;35253;34.688;33.040;2023-05-29T11:11:29;100458.91;;;24.82;100.00
49377;BME280;35253;34.688;33.040;2023-05-29T11:13:57;100456.16;;;24.67;100.00
49377;BME280;35253;34.688;33.040;2023-05-29T11:18:55;100458.03;;;24.67;100.00
49377;BME280;35253;34.688;33.040;2023-05-29T11:24:26;100452.31;;;24.77;100.00
49377;BME280;35253;34.688;33.040;2023-05-29T11:26:53;100448.63;;;24.69;100.00
49377;BME280;35253;34.688;33.040;2023-05-29T11:29:23;100457.78;;;25.06;100.00
49377;BME280;35253;34.688;33.040;2023-05-29T11:34:28;100469.81;;;24.97;100.00
49377;BME280;35253;34.688;33.040;2023-05-29T11:36:57;100464.47;;;25.03;100.00
49377;BME280;35253;34.688;33.040;2023-05-29T11:39:23;100460.34;;;25.43;100.00
49377;BME280;35253;34.688;33.040;2023-05-29T11:41:52;100466.09;;;25.48;100.00
49377;BME280;35253;34.688;33.040;2023-05-29T11:44:18;100476.13;;;25.12;100.00
49377;BME280;35253;34.688;33.040;2023-05-29T11:46:44;100459.75;;;24.83;100.00
49377;BME280;35253;34.688;33.040;2023-05-29T11:49:10;100460.81;;;25.62;100.00
49377;BME280;35253;34.688;33.040;2023-05-29T11:51:35;100458.59;;;25.36;100.00
49377;BME280;35253;34.688;33.040;2023-05-29T11:54:02;100459.81;;;25.33;100.00
49377;BME280;35253;34.688;33.040;2023-05-29T11:56:29;100446.56;;;25.30;100.00
49377;BME280;35253;34.688;33.040;2023-05-29T11:58:58;100460.94;;;24.80;100.00
49377;BME280;35253;34.688;33.040;2023-05-29T12:01:26;100473.31;;;25.05;100.00
49377;BME280;35253;34.688;33.040;2023-05-29T12:03:52;100453.31;;;25.34;100.00
49377;BME280;35253;34.688;33.040;2023-05-29T12:06:34;100451.69;;;25.54;100.00
49377;BME280;35253;34.688;33.040;2023-05-29T12:09:02;100449.63;;;25.78;100.00
49377;BME280;35253;34.688;33.040;2023-05-29T12:11:29;100450.34;;;25.50;100.00
49377;BME280;35253;34.688;33.040;2023-05-29T12:14:00;100453.34;;;25.20;100.00
49377;BME280;35253;34.688;33.040;2023-05-29T12:16:30;100460.31;;;25.07;100.00
49377;BME280;35253;34.688;33.040;2023-05-29T12:18:56;100456.97;;;25.41;100.00
49377;BME280;35253;34.688;33.040;2023-05-29T12:21:22;100448.88;;;25.33;100.00
49377;BME280;35253;34.688;33.040;2023-05-29T12:23:52;100453.50;;;25.33;100.00
49377;BME280;35253;34.688;33.040;2023-05-29T12:26:22;100479.56;;;25.35;100.00
49377;BME280;35253;34.688;33.040;2023-05-29T12:28:48;100454.75;;;25.30;100.00
49377;BME280;35253;34.688;33.040;2023-05-29T12:31:29;100487.94;;;25.48;100.00
49377;BME280;35253;34.688;33.040;2023-05-29T12:34:00;100458.44;;;25.23;100.00
49377;BME280;35253;34.688;33.040;2023-05-29T12:36:27;100487.31;;;25.17;100.00
49377;BME280;35253;34.688;33.040;2023-05-29T12:38:52;100472.28;;;24.92;100.00
49377;BME280;35253;34.688;33.040;2023-05-29T12:41:29;100478.28;;;25.02;100.00
49377;BME280;35253;34.688;33.040;2023-05-29T12:43:56;100473.75;;;24.65;100.00
49377;BME280;35253;34.688;33.040;2023-05-29T12:46:25;100480.38;;;25.00;100.00
49377;BME280;35253;34.688;33.040;2023-05-29T12:48:55;100467.81;;;25.20;100.00
49377;BME280;35253;34.688;33.040;2023-05-29T12:51:24;100473.63;;;24.58;100.00
49377;BME280;35253;34.688;33.040;2023-05-29T12:53:50;100472.53;;;25.11;100.00